sensor_id;sensor_type;location;lat;lon;timestamp;pressure;altitude;pressure_sealevel;temperature;humidity
21664;BME280;10993;52.510;13.456;2022-08-23T00:03:05;-26751.25;;;20.40;96.50
21664;BME280;10993;52.510;13.456;2022-08-23T00:08:07;-26752.50;;;20.44;96.53
21664;BME280;10993;52.510;13.456;2022-08-23T00:13:07;-26755.88;;;20.56;95.18
21664;BME280;10993;52.510;13.456;2022-08-23T00:18:08;-26750.34;;;20.37;96.86
21664;BME280;10993;52.510;13.456;2022-08-23T00:23:10;-26749.72;;;20.35;97.09
21664;BME280;10993;52.510;13.456;2022-08-23T00:28:10;-26742.91;;;20.12;98.18
21664;BME280;10993;52.510;13.456;2022-08-23T00:33:10;-26742.00;;;20.09;98.39
21664;BME280;10993;52.510;13.456;2022-08-23T00:38:12;-26741.53;;;20.08;98.58
21664;BME280;10993;52.510;13.456;2022-08-23T00:43:14;-26738.59;;;19.98;99.06
21664;BME280;10993;52.510;13.456;2022-08-23T00:48:34;-26735.97;;;19.89;98.97
21664;BME280;10993;52.510;13.456;2022-08-23T00:53:38;-26737.38;;;19.94;99.25
21664;BME280;10993;52.510;13.456;2022-08-23T00:58:41;-26733.19;;;19.80;99.04
21664;BME280;10993;52.510;13.456;2022-08-23T01:03:44;-26741.06;;;20.06;97.77
21664;BME280;10993;52.510;13.456;2022-08-23T01:08:50;-26746.31;;;20.24;96.11
21664;BME280;10993;52.510;13.456;2022-08-23T01:13:54;-26746.31;;;20.24;95.86
21664;BME280;10993;52.510;13.456;2022-08-23T01:18:56;-26744.94;;;20.19;95.80
21664;BME280;10993;52.510;13.456;2022-08-23T01:24:00;-26745.38;;;20.21;95.23
21664;BME280;10993;52.510;13.456;2022-08-23T01:29:05;-26747.56;;;20.28;94.54
21664;BME280;10993;52.510;13.456;2022-08-23T01:34:08;-26742.78;;;20.12;95.49
21664;BME280;10993;52.510;13.456;2022-08-23T01:39:10;-26743.53;;;20.14;93.82
21664;BME280;10993;52.510;13.456;2022-08-23T01:44:12;-26741.38;;;20.07;94.74
21664;BME280;10993;52.510;13.456;2022-08-23T01:49:13;-26741.53;;;20.08;94.16
21664;BME280;10993;52.510;13.456;2022-08-23T01:54:14;-26744.78;;;20.18;93.36
21664;BME280;10993;52.510;13.456;2022-08-23T01:59:15;-26741.84;;;20.09;94.17
21664;BME280;10993;52.510;13.456;2022-08-23T02:04:15;-26741.06;;;20.06;94.39
21664;BME280;10993;52.510;13.456;2022-08-23T02:09:17;-26740.44;;;20.04;94.00
21664;BME280;10993;52.510;13.456;2022-08-23T02:14:19;-26741.22;;;20.07;93.44
21664;BME280;10993;52.510;13.456;2022-08-23T02:19:20;-26733.97;;;19.82;94.34
21664;BME280;10993;52.510;13.456;2022-08-23T02:24:23;-26736.28;;;19.90;92.83
21664;BME280;10993;52.510;13.456;2022-08-23T02:29:25;-26733.50;;;19.81;92.99
21664;BME280;10993;52.510;13.456;2022-08-23T02:34:29;-26731.03;;;19.73;93.58
21664;BME280;10993;52.510;13.456;2022-08-23T02:39:32;-26730.09;;;19.69;93.80
21664;BME280;10993;52.510;13.456;2022-08-23T02:44:32;-26729.00;;;19.66;93.87
21664;BME280;10993;52.510;13.456;2022-08-23T02:49:34;-26730.09;;;19.69;94.03
21664;BME280;10993;52.510;13.456;2022-08-23T02:54:35;-26728.84;;;19.65;94.40
21664;BME280;10993;52.510;13.456;2022-08-23T02:59:36;-26729.31;;;19.67;94.47
21664;BME280;10993;52.510;13.456;2022-08-23T03:04:37;-26723.59;;;19.48;94.42
21664;BME280;10993;52.510;13.456;2022-08-23T03:09:38;-26730.09;;;19.69;94.67
21664;BME280;10993;52.510;13.456;2022-08-23T03:14:39;-26722.69;;;19.45;95.30
21664;BME280;10993;52.510;13.456;2022-08-23T03:19:39;-26727.47;;;19.61;95.66
21664;BME280;10993;52.510;13.456;2022-08-23T03:24:41;-26728.41;;;19.64;95.76
21664;BME280;10993;52.510;13.456;2022-08-23T03:29:41;-26723.59;;;19.48;97.60
21664;BME280;10993;52.510;13.456;2022-08-23T03:34:41;-26723.91;;;19.49;97.42
21664;BME280;10993;52.510;13.456;2022-08-23T03:39:43;-26723.13;;;19.46;97.78
21664;BME280;10993;52.510;13.456;2022-08-23T03:44:44;-26724.84;;;19.52;98.11
21664;BME280;10993;52.510;13.456;2022-08-23T03:49:45;-26717.88;;;19.29;98.01
21664;BME280;10993;52.510;13.456;2022-08-23T03:54:46;-26725.91;;;19.56;98.44
21664;BME280;10993;52.510;13.456;2022-08-23T03:59:47;-26721.28;;;19.40;99.35
21664;BME280;10993;52.510;13.456;2022-08-23T04:04:48;-26726.06;;;19.56;99.20
21664;BME280;10993;52.510;13.456;2022-08-23T04:09:49;-26726.84;;;19.59;97.86
21664;BME280;10993;52.510;13.456;2022-08-23T04:14:50;-26731.94;;;19.76;98.16
21664;BME280;10993;52.510;13.456;2022-08-23T04:19:50;-26726.38;;;19.57;99.14
21664;BME280;10993;52.510;13.456;2022-08-23T04:24:52;-26730.41;;;19.71;99.01
21664;BME280;10993;52.510;13.456;2022-08-23T04:29:52;-26728.41;;;19.64;99.67
21664;BME280;10993;52.510;13.456;2022-08-23T04:34:52;-26732.72;;;19.78;98.79
21664;BME280;10993;52.510;13.456;2022-08-23T04:39:54;-26733.66;;;19.81;98.70
21664;BME280;10993;52.510;13.456;2022-08-23T04:45:13;-26736.75;;;19.92;97.84
21664;BME280;10993;52.510;13.456;2022-08-23T04:50:14;-26738.28;;;19.97;97.85
21664;BME280;10993;52.510;13.456;2022-08-23T04:55:16;-26729.16;;;19.66;97.89
21664;BME280;10993;52.510;13.456;2022-08-23T05:00:16;-26736.44;;;19.91;98.31
21664;BME280;10993;52.510;13.456;2022-08-23T05:05:17;-26740.13;;;20.03;97.64
21664;BME280;10993;52.510;13.456;2022-08-23T05:10:19;-26744.94;;;20.19;96.87
21664;BME280;10993;52.510;13.456;2022-08-23T05:15:20;-26744.94;;;20.19;96.68
21664;BME280;10993;52.510;13.456;2022-08-23T05:20:20;-26749.41;;;20.34;95.54
21664;BME280;10993;52.510;13.456;2022-08-23T05:25:22;-26748.47;;;20.31;95.32
21664;BME280;10993;52.510;13.456;2022-08-23T05:30:22;-26754.97;;;20.52;94.35
21664;BME280;10993;52.510;13.456;2022-08-23T05:35:23;-26751.25;;;20.40;95.04
21664;BME280;10993;52.510;13.456;2022-08-23T05:40:24;-26748.94;;;20.32;95.51
21664;BME280;10993;52.510;13.456;2022-08-23T05:45:25;-26753.41;;;20.47;94.91
21664;BME280;10993;52.510;13.456;2022-08-23T05:50:26;-26752.94;;;20.46;95.14
21664;BME280;10993;52.510;13.456;2022-08-23T05:55:27;-26757.72;;;20.62;94.64
21664;BME280;10993;52.510;13.456;2022-08-23T06:00:28;-26761.28;;;20.74;93.56
21664;BME280;10993;52.510;13.456;2022-08-23T06:05:28;-26762.69;;;20.78;93.70
21664;BME280;10993;52.510;13.456;2022-08-23T06:10:30;-26760.22;;;20.70;94.06
21664;BME280;10993;52.510;13.456;2022-08-23T06:15:31;-26769.63;;;21.01;92.85
21664;BME280;10993;52.510;13.456;2022-08-23T06:20:32;-26778.41;;;21.31;90.89
21664;BME280;10993;52.510;13.456;2022-08-23T06:25:36;-26795.19;;;21.87;86.46
21664;BME280;10993;52.510;13.456;2022-08-23T06:30:37;-26813.50;;;22.48;83.07
21664;BME280;10993;52.510;13.456;2022-08-23T06:35:37;-26827.94;;;22.97;81.04
21664;BME280;10993;52.510;13.456;2022-08-23T06:40:39;-26828.56;;;22.99;79.79
21664;BME280;10993;52.510;13.456;2022-08-23T06:45:39;-26846.06;;;23.58;76.08
21664;BME280;10993;52.510;13.456;2022-08-23T06:50:40;-26885.91;;;24.92;70.99
21664;BME280;10993;52.510;13.456;2022-08-23T06:55:42;-26976.41;;;27.97;55.18
21664;BME280;10993;52.510;13.456;2022-08-23T07:00:42;-27010.16;;;29.12;49.21
21664;BME280;10993;52.510;13.456;2022-08-23T07:05:42;-26954.63;;;27.24;55.50
21664;BME280;10993;52.510;13.456;2022-08-23T07:10:44;-26886.53;;;24.94;66.94
21664;BME280;10993;52.510;13.456;2022-08-23T07:15:44;-26869.97;;;24.38;70.32
21664;BME280;10993;52.510;13.456;2022-08-23T07:20:45;-26857.41;;;23.96;73.75
21664;BME280;10993;52.510;13.456;2022-08-23T07:25:46;-26832.56;;;23.12;79.74
21664;BME280;10993;52.510;13.456;2022-08-23T07:30:47;-26850.50;;;23.73;77.13
21664;BME280;10993;52.510;13.456;2022-08-23T07:35:48;-26844.97;;;23.54;78.69
21664;BME280;10993;52.510;13.456;2022-08-23T07:40:50;-26863.25;;;24.15;76.41
21664;BME280;10993;52.510;13.456;2022-08-23T07:45:50;-26867.84;;;24.31;75.17
21664;BME280;10993;52.510;13.456;2022-08-23T07:50:51;-26854.34;;;23.85;74.99
21664;BME280;10993;52.510;13.456;2022-08-23T07:55:55;-26865.69;;;24.24;74.94
21664;BME280;10993;52.510;13.456;2022-08-23T08:00:55;-26866.00;;;24.25;73.66
21664;BME280;10993;52.510;13.456;2022-08-23T08:05:56;-26858.66;;;24.00;75.50
21664;BME280;10993;52.510;13.456;2022-08-23T08:10:58;-26857.56;;;23.96;74.71
21664;BME280;10993;52.510;13.456;2022-08-23T08:15:58;-26860.31;;;24.06;74.17
21664;BME280;10993;52.510;13.456;2022-08-23T08:20:58;-26890.34;;;25.07;69.82
21664;BME280;10993;52.510;13.456;2022-08-23T08:26:02;-26914.66;;;25.89;64.63
21664;BME280;10993;52.510;13.456;2022-08-23T08:31:04;-26900.28;;;25.40;66.94
21664;BME280;10993;52.510;13.456;2022-08-23T08:36:06;-26928.25;;;26.34;63.18
21664;BME280;10993;52.510;13.456;2022-08-23T08:41:13;-26941.53;;;26.79;60.02
21664;BME280;10993;52.510;13.456;2022-08-23T08:46:22;-26919.84;;;26.06;62.57
21664;BME280;10993;52.510;13.456;2022-08-23T08:51:39;-26920.78;;;26.09;64.10
21664;BME280;10993;52.510;13.456;2022-08-23T08:56:45;-26932.22;;;26.48;59.60
21664;BME280;10993;52.510;13.456;2022-08-23T09:01:47;-26954.78;;;27.24;58.28
21664;BME280;10993;52.510;13.456;2022-08-23T09:06:51;-26921.06;;;26.10;60.97
21664;BME280;10993;52.510;13.456;2022-08-23T09:12:00;-26919.69;;;26.06;60.58
21664;BME280;10993;52.510;13.456;2022-08-23T09:17:11;-26897.84;;;25.32;64.17
21664;BME280;10993;52.510;13.456;2022-08-23T09:22:29;-26906.88;;;25.62;61.84
21664;BME280;10993;52.510;13.456;2022-08-23T09:27:33;-26892.34;;;25.13;61.97
21664;BME280;10993;52.510;13.456;2022-08-23T09:32:37;-26905.50;;;25.58;60.94
21664;BME280;10993;52.510;13.456;2022-08-23T09:37:46;-26899.38;;;25.37;61.63
21664;BME280;10993;52.510;13.456;2022-08-23T09:43:01;-26907.63;;;25.65;61.71
21664;BME280;10993;52.510;13.456;2022-08-23T09:48:03;-26914.03;;;25.87;60.75
21664;BME280;10993;52.510;13.456;2022-08-23T09:53:06;-26933.59;;;26.53;57.71
21664;BME280;10993;52.510;13.456;2022-08-23T09:58:18;-26930.09;;;26.41;57.22
21664;BME280;10993;52.510;13.456;2022-08-23T10:03:24;-26914.34;;;25.88;60.15
21664;BME280;10993;52.510;13.456;2022-08-23T10:08:26;-26929.00;;;26.37;57.89
21664;BME280;10993;52.510;13.456;2022-08-23T10:13:29;-26954.63;;;27.24;54.40
21664;BME280;10993;52.510;13.456;2022-08-23T10:18:39;-26964.38;;;27.57;52.07
21664;BME280;10993;52.510;13.456;2022-08-23T10:23:54;-26986.28;;;28.31;50.67
21664;BME280;10993;52.510;13.456;2022-08-23T10:29:03;-26976.69;;;27.98;50.08
21664;BME280;10993;52.510;13.456;2022-08-23T10:34:36;-26985.84;;;28.29;49.38
21664;BME280;10993;52.510;13.456;2022-08-23T10:39:44;-26994.66;;;28.59;48.47
21664;BME280;10993;52.510;13.456;2022-08-23T10:44:51;-26970.16;;;27.76;48.63
21664;BME280;10993;52.510;13.456;2022-08-23T10:49:57;-26993.13;;;28.54;47.50
21664;BME280;10993;52.510;13.456;2022-08-23T10:55:02;-26955.84;;;27.28;49.91
21664;BME280;10993;52.510;13.456;2022-08-23T11:00:19;-26972.91;;;27.86;48.40
21664;BME280;10993;52.510;13.456;2022-08-23T11:05:22;-27000.88;;;28.80;45.92
21664;BME280;10993;52.510;13.456;2022-08-23T11:10:30;-26979.44;;;28.08;46.87
21664;BME280;10993;52.510;13.456;2022-08-23T11:15:40;-26998.00;;;28.71;46.73
21664;BME280;10993;52.510;13.456;2022-08-23T11:21:00;-26992.66;;;28.53;46.20
21664;BME280;10993;52.510;13.456;2022-08-23T11:26:04;-26977.31;;;28.00;47.13
21664;BME280;10993;52.510;13.456;2022-08-23T11:31:20;-26994.78;;;28.60;46.55
21664;BME280;10993;52.510;13.456;2022-08-23T11:36:23;-26998.44;;;28.72;46.06
21664;BME280;10993;52.510;13.456;2022-08-23T11:41:26;-26982.03;;;28.16;46.91
21664;BME280;10993;52.510;13.456;2022-08-23T11:46:31;-26937.69;;;26.66;51.41
21664;BME280;10993;52.510;13.456;2022-08-23T11:51:39;-26971.06;;;27.79;47.99
21664;BME280;10993;52.510;13.456;2022-08-23T11:57:03;-26982.19;;;28.17;46.05
21664;BME280;10993;52.510;13.456;2022-08-23T12:02:33;-27018.34;;;29.40;41.23
21664;BME280;10993;52.510;13.456;2022-08-23T12:07:44;-27062.72;;;30.91;37.55
21664;BME280;10993;52.510;13.456;2022-08-23T12:18:25;-26998.91;;;28.74;41.85
21664;BME280;10993;52.510;13.456;2022-08-23T12:23:26;-27011.06;;;29.15;41.56
21664;BME280;10993;52.510;13.456;2022-08-23T12:28:41;-26979.00;;;28.06;42.65
21664;BME280;10993;52.510;13.456;2022-08-23T12:33:52;-26990.25;;;28.44;42.21
21664;BME280;10993;52.510;13.456;2022-08-23T12:38:57;-26976.25;;;27.97;42.84
21664;BME280;10993;52.510;13.456;2022-08-23T12:44:03;-26961.94;;;27.48;44.40
21664;BME280;10993;52.510;13.456;2022-08-23T12:49:09;-26959.97;;;27.42;46.11
21664;BME280;10993;52.510;13.456;2022-08-23T12:54:15;-26959.06;;;27.39;47.51
21664;BME280;10993;52.510;13.456;2022-08-23T12:59:33;-26939.69;;;26.73;48.16
21664;BME280;10993;52.510;13.456;2022-08-23T13:04:38;-26938.94;;;26.71;47.21
21664;BME280;10993;52.510;13.456;2022-08-23T13:09:41;-26938.47;;;26.69;46.59
21664;BME280;10993;52.510;13.456;2022-08-23T13:14:45;-26938.78;;;26.70;45.24
21664;BME280;10993;52.510;13.456;2022-08-23T13:19:49;-26946.41;;;26.96;44.71
21664;BME280;10993;52.510;13.456;2022-08-23T13:25:03;-26943.06;;;26.85;42.71
21664;BME280;10993;52.510;13.456;2022-08-23T13:30:19;-26944.13;;;26.88;44.83
21664;BME280;10993;52.510;13.456;2022-08-23T13:35:30;-26948.84;;;27.04;43.97
21664;BME280;10993;52.510;13.456;2022-08-23T13:40:38;-26962.84;;;27.52;42.80
21664;BME280;10993;52.510;13.456;2022-08-23T13:45:46;-26961.50;;;27.47;42.20
21664;BME280;10993;52.510;13.456;2022-08-23T13:50:49;-26966.34;;;27.63;42.79
21664;BME280;10993;52.510;13.456;2022-08-23T13:55:51;-26987.19;;;28.34;41.11
21664;BME280;10993;52.510;13.456;2022-08-23T14:00:53;-26973.50;;;27.88;42.66
21664;BME280;10993;52.510;13.456;2022-08-23T14:05:56;-26960.56;;;27.44;43.96
21664;BME280;10993;52.510;13.456;2022-08-23T14:10:56;-26947.00;;;26.98;46.21
21664;BME280;10993;52.510;13.456;2022-08-23T14:16:04;-26955.09;;;27.25;45.73
21664;BME280;10993;52.510;13.456;2022-08-23T14:21:07;-26963.47;;;27.54;45.44
21664;BME280;10993;52.510;13.456;2022-08-23T14:26:09;-26963.63;;;27.54;45.83
21664;BME280;10993;52.510;13.456;2022-08-23T14:31:13;-26951.13;;;27.12;46.82
21664;BME280;10993;52.510;13.456;2022-08-23T14:36:15;-26939.38;;;26.72;47.83
21664;BME280;10993;52.510;13.456;2022-08-23T14:41:17;-26937.84;;;26.67;48.07
21664;BME280;10993;52.510;13.456;2022-08-23T14:46:19;-26943.50;;;26.86;47.92
21664;BME280;10993;52.510;13.456;2022-08-23T14:51:25;-26932.06;;;26.47;49.13
21664;BME280;10993;52.510;13.456;2022-08-23T14:56:26;-26921.84;;;26.13;51.37
21664;BME280;10993;52.510;13.456;2022-08-23T15:01:26;-26929.94;;;26.40;51.32
21664;BME280;10993;52.510;13.456;2022-08-23T15:06:28;-26928.69;;;26.36;51.05
21664;BME280;10993;52.510;13.456;2022-08-23T15:11:29;-26931.00;;;26.44;50.20
21664;BME280;10993;52.510;13.456;2022-08-23T15:16:30;-26920.16;;;26.07;51.14
21664;BME280;10993;52.510;13.456;2022-08-23T15:21:32;-26916.66;;;25.95;53.02
21664;BME280;10993;52.510;13.456;2022-08-23T15:26:32;-26908.25;;;25.67;54.34
21664;BME280;10993;52.510;13.456;2022-08-23T15:31:33;-26910.84;;;25.76;54.26
21664;BME280;10993;52.510;13.456;2022-08-23T15:36:39;-26910.22;;;25.74;54.25
21664;BME280;10993;52.510;13.456;2022-08-23T15:41:40;-26924.59;;;26.22;52.54
21664;BME280;10993;52.510;13.456;2022-08-23T15:46:44;-26920.91;;;26.10;52.57
21664;BME280;10993;52.510;13.456;2022-08-23T15:51:46;-26916.03;;;25.93;51.66
21664;BME280;10993;52.510;13.456;2022-08-23T15:56:48;-26911.59;;;25.78;52.62
21664;BME280;10993;52.510;13.456;2022-08-23T16:01:49;-26905.78;;;25.59;53.51
21664;BME280;10993;52.510;13.456;2022-08-23T16:06:51;-26905.03;;;25.56;53.70
21664;BME280;10993;52.510;13.456;2022-08-23T16:11:51;-26906.09;;;25.60;53.73
21664;BME280;10993;52.510;13.456;2022-08-23T16:16:51;-26900.91;;;25.42;53.46
21664;BME280;10993;52.510;13.456;2022-08-23T16:21:53;-26903.97;;;25.53;55.11
21664;BME280;10993;52.510;13.456;2022-08-23T16:26:54;-26901.81;;;25.45;53.88
21664;BME280;10993;52.510;13.456;2022-08-23T16:31:55;-26900.91;;;25.42;55.26
21664;BME280;10993;52.510;13.456;2022-08-23T16:36:59;-26896.31;;;25.27;56.02
21664;BME280;10993;52.510;13.456;2022-08-23T16:42:00;-26901.06;;;25.43;56.05
21664;BME280;10993;52.510;13.456;2022-08-23T16:47:05;-26897.38;;;25.30;55.40
21664;BME280;10993;52.510;13.456;2022-08-23T16:52:08;-26897.53;;;25.31;55.30
21664;BME280;10993;52.510;13.456;2022-08-23T16:57:09;-26900.75;;;25.42;55.58
21664;BME280;10993;52.510;13.456;2022-08-23T17:02:22;-26894.78;;;25.22;55.81
21664;BME280;10993;52.510;13.456;2022-08-23T17:07:25;-26894.78;;;25.22;56.40
21664;BME280;10993;52.510;13.456;2022-08-23T17:12:26;-26890.81;;;25.08;57.02
21664;BME280;10993;52.510;13.456;2022-08-23T17:17:27;-26893.25;;;25.16;57.76
21664;BME280;10993;52.510;13.456;2022-08-23T17:22:30;-26889.59;;;25.04;57.73
21664;BME280;10993;52.510;13.456;2022-08-23T17:27:31;-26886.81;;;24.95;58.31
21664;BME280;10993;52.510;13.456;2022-08-23T17:32:32;-26885.28;;;24.90;59.35
21664;BME280;10993;52.510;13.456;2022-08-23T17:37:35;-26882.84;;;24.81;59.63
21664;BME280;10993;52.510;13.456;2022-08-23T17:42:36;-26881.47;;;24.77;60.23
21664;BME280;10993;52.510;13.456;2022-08-23T17:47:36;-26875.81;;;24.58;61.29
21664;BME280;10993;52.510;13.456;2022-08-23T17:52:38;-26875.81;;;24.58;61.67
21664;BME280;10993;52.510;13.456;2022-08-23T17:57:38;-26871.97;;;24.45;63.87
21664;BME280;10993;52.510;13.456;2022-08-23T18:02:40;-26872.28;;;24.46;64.88
21664;BME280;10993;52.510;13.456;2022-08-23T18:07:43;-26864.00;;;24.18;67.56
21664;BME280;10993;52.510;13.456;2022-08-23T18:12:43;-26859.88;;;24.04;67.82
21664;BME280;10993;52.510;13.456;2022-08-23T18:17:43;-26859.56;;;24.03;69.03
21664;BME280;10993;52.510;13.456;2022-08-23T18:22:45;-26852.81;;;23.80;70.37
21664;BME280;10993;52.510;13.456;2022-08-23T18:27:46;-26856.81;;;23.94;70.21
21664;BME280;10993;52.510;13.456;2022-08-23T18:33:05;-26851.28;;;23.75;70.28
21664;BME280;10993;52.510;13.456;2022-08-23T18:38:07;-26849.13;;;23.68;71.87
21664;BME280;10993;52.510;13.456;2022-08-23T18:43:08;-26848.22;;;23.65;72.86
21664;BME280;10993;52.510;13.456;2022-08-23T18:48:08;-26843.31;;;23.48;73.98
21664;BME280;10993;52.510;13.456;2022-08-23T18:53:12;-26834.69;;;23.20;73.64
21664;BME280;10993;52.510;13.456;2022-08-23T18:58:12;-26841.16;;;23.41;74.29
21664;BME280;10993;52.510;13.456;2022-08-23T19:03:13;-26833.16;;;23.14;75.32
21664;BME280;10993;52.510;13.456;2022-08-23T19:08:15;-26837.63;;;23.29;75.70
21664;BME280;10993;52.510;13.456;2022-08-23T19:13:15;-26833.94;;;23.17;76.44
21664;BME280;10993;52.510;13.456;2022-08-23T19:18:15;-26831.78;;;23.10;77.24
21664;BME280;10993;52.510;13.456;2022-08-23T19:23:17;-26829.16;;;23.01;77.68
21664;BME280;10993;52.510;13.456;2022-08-23T19:28:20;-26822.41;;;22.78;77.78
21664;BME280;10993;52.510;13.456;2022-08-23T19:33:22;-26826.72;;;22.93;78.81
21664;BME280;10993;52.510;13.456;2022-08-23T19:38:24;-26826.41;;;22.92;78.66
21664;BME280;10993;52.510;13.456;2022-08-23T19:43:26;-26824.09;;;22.84;78.68
21664;BME280;10993;52.510;13.456;2022-08-23T19:48:26;-26822.88;;;22.80;79.05
21664;BME280;10993;52.510;13.456;2022-08-23T19:53:28;-26821.63;;;22.76;79.58
21664;BME280;10993;52.510;13.456;2022-08-23T19:58:28;-26819.03;;;22.67;80.22
21664;BME280;10993;52.510;13.456;2022-08-23T20:03:29;-26813.81;;;22.49;81.67
21664;BME280;10993;52.510;13.456;2022-08-23T20:08:31;-26811.97;;;22.43;82.21
21664;BME280;10993;52.510;13.456;2022-08-23T20:13:31;-26811.03;;;22.40;82.44
21664;BME280;10993;52.510;13.456;2022-08-23T20:18:33;-26807.19;;;22.27;83.55
21664;BME280;10993;52.510;13.456;2022-08-23T20:23:34;-26805.50;;;22.22;84.09
21664;BME280;10993;52.510;13.456;2022-08-23T20:28:53;-26800.72;;;22.06;84.36
21664;BME280;10993;52.510;13.456;2022-08-23T20:33:54;-26799.66;;;22.02;85.43
21664;BME280;10993;52.510;13.456;2022-08-23T20:38:58;-26797.19;;;21.94;85.95
21664;BME280;10993;52.510;13.456;2022-08-23T20:43:59;-26791.66;;;21.75;86.52
21664;BME280;10993;52.510;13.456;2022-08-23T20:49:01;-26793.19;;;21.80;87.72
21664;BME280;10993;52.510;13.456;2022-08-23T20:54:03;-26792.88;;;21.79;88.06
21664;BME280;10993;52.510;13.456;2022-08-23T20:59:04;-26789.34;;;21.67;88.31
21664;BME280;10993;52.510;13.456;2022-08-23T21:04:04;-26784.09;;;21.50;89.58
21664;BME280;10993;52.510;13.456;2022-08-23T21:09:07;-26786.41;;;21.58;90.66
21664;BME280;10993;52.510;13.456;2022-08-23T21:14:10;-26780.88;;;21.39;91.36
21664;BME280;10993;52.510;13.456;2022-08-23T21:19:11;-26783.94;;;21.49;91.49
21664;BME280;10993;52.510;13.456;2022-08-23T21:24:14;-26778.84;;;21.32;93.03
21664;BME280;10993;52.510;13.456;2022-08-23T21:29:14;-26780.88;;;21.39;92.77
21664;BME280;10993;52.510;13.456;2022-08-23T21:34:14;-26780.09;;;21.36;92.47
21664;BME280;10993;52.510;13.456;2022-08-23T21:39:16;-26774.09;;;21.16;94.23
21664;BME280;10993;52.510;13.456;2022-08-23T21:44:19;-26777.16;;;21.27;94.18
21664;BME280;10993;52.510;13.456;2022-08-23T21:49:20;-26771.31;;;21.07;95.56
21664;BME280;10993;52.510;13.456;2022-08-23T21:54:21;-26770.69;;;21.05;95.92
21664;BME280;10993;52.510;13.456;2022-08-23T21:59:23;-26763.44;;;20.81;96.51
21664;BME280;10993;52.510;13.456;2022-08-23T22:04:25;-26764.84;;;20.85;97.70
21664;BME280;10993;52.510;13.456;2022-08-23T22:09:26;-26761.91;;;20.76;98.25
21664;BME280;10993;52.510;13.456;2022-08-23T22:14:28;-26759.91;;;20.69;98.42
21664;BME280;10993;52.510;13.456;2022-08-23T22:19:29;-26761.75;;;20.75;98.72
21664;BME280;10993;52.510;13.456;2022-08-23T22:24:31;-26753.56;;;20.48;100.00
21664;BME280;10993;52.510;13.456;2022-08-23T22:29:31;-26751.88;;;20.42;100.00
21664;BME280;10993;52.510;13.456;2022-08-23T22:34:31;-26748.63;;;20.31;100.00
21664;BME280;10993;52.510;13.456;2022-08-23T22:39:33;-26752.63;;;20.45;100.00
21664;BME280;10993;52.510;13.456;2022-08-23T22:44:33;-26752.50;;;20.44;100.00
21664;BME280;10993;52.510;13.456;2022-08-23T22:49:33;-26751.56;;;20.41;100.00
21664;BME280;10993;52.510;13.456;2022-08-23T22:54:35;-26747.09;;;20.26;100.00
21664;BME280;10993;52.510;13.456;2022-08-23T22:59:35;-26742.59;;;20.11;100.00
21664;BME280;10993;52.510;13.456;2022-08-23T23:04:36;-26744.00;;;20.16;100.00
21664;BME280;10993;52.510;13.456;2022-08-23T23:09:38;-26743.53;;;20.14;100.00
21664;BME280;10993;52.510;13.456;2022-08-23T23:14:38;-26739.38;;;20.00;100.00
21664;BME280;10993;52.510;13.456;2022-08-23T23:19:38;-26740.44;;;20.04;100.00
21664;BME280;10993;52.510;13.456;2022-08-23T23:25:00;-26736.91;;;19.92;100.00
21664;BME280;10993;52.510;13.456;2022-08-23T23:30:00;-26728.56;;;19.64;100.00
21664;BME280;10993;52.510;13.456;2022-08-23T23:35:00;-26736.44;;;19.91;100.00
21664;BME280;10993;52.510;13.456;2022-08-23T23:40:04;-26736.44;;;19.91;100.00
21664;BME280;10993;52.510;13.456;2022-08-23T23:45:05;-26729.63;;;19.68;100.00
21664;BME280;10993;52.510;13.456;2022-08-23T23:50:07;-26735.19;;;19.87;100.00
21664;BME280;10993;52.510;13.456;2022-08-23T23:55:13;-26733.19;;;19.80;100.00
